createdAt,value
2018-05-03T00:00:08.906Z,11.03
2018-05-03T00:02:37.273Z,10.27
2018-05-03T00:05:05.592Z,10.37
2018-05-03T00:07:33.929Z,10.83
2018-05-03T00:10:02.279Z,10.80
2018-05-03T00:12:30.603Z,11.80
2018-05-03T00:14:58.937Z,11.10
2018-05-03T00:17:27.261Z,11.40
2018-05-03T00:19:55.619Z,11.40
2018-05-03T00:22:24.360Z,11.60
2018-05-03T00:24:52.734Z,11.60
2018-05-03T00:27:21.081Z,11.47
2018-05-03T00:29:49.496Z,10.20
2018-05-03T00:32:17.875Z,10.33
2018-05-03T00:34:46.182Z,10.80
2018-05-03T00:37:14.539Z,10.97
2018-05-03T00:39:42.907Z,12.23
2018-05-03T00:42:11.232Z,12.47
2018-05-03T00:44:39.575Z,12.27
2018-05-03T00:47:07.918Z,11.27
2018-05-03T00:49:36.347Z,11.37
2018-05-03T00:52:04.693Z,11.87
2018-05-03T00:54:44.832Z,13.00
2018-05-03T00:57:13.177Z,12.10
2018-05-03T00:59:41.535Z,10.77
2018-05-03T01:02:09.887Z,11.93
2018-05-03T01:04:38.225Z,12.27
2018-05-03T01:07:06.567Z,12.67
2018-05-03T01:09:34.919Z,12.40
2018-05-03T01:12:03.287Z,13.23
2018-05-03T01:14:31.616Z,12.17
2018-05-03T01:17:00.003Z,12.37
2018-05-03T01:19:28.428Z,12.27
2018-05-03T01:21:56.809Z,13.57
2018-05-03T01:24:25.162Z,13.50
2018-05-03T01:26:53.593Z,13.43
2018-05-03T01:29:21.944Z,13.67
2018-05-03T01:31:50.301Z,17.27
2018-05-03T01:34:18.645Z,17.53
2018-05-03T01:36:46.969Z,17.30
2018-05-03T01:39:15.318Z,17.83
2018-05-03T01:41:43.678Z,18.77
2018-05-03T01:44:12.043Z,19.53
2018-05-03T01:46:41.793Z,20.07
2018-05-03T01:49:10.147Z,19.87
2018-05-03T01:51:38.528Z,20.70
2018-05-03T01:54:06.912Z,19.90
2018-05-03T01:56:35.277Z,21.67
2018-05-03T01:59:03.671Z,20.97
2018-05-03T02:01:32.125Z,21.40
2018-05-03T02:04:01.236Z,18.73
2018-05-03T02:06:29.550Z,19.97
2018-05-03T02:08:57.911Z,20.07
2018-05-03T02:11:26.356Z,23.43
2018-05-03T02:13:54.751Z,20.17
2018-05-03T02:16:23.140Z,21.20
2018-05-03T02:18:51.459Z,20.10
2018-05-03T02:21:19.837Z,23.80
2018-05-03T02:23:48.219Z,21.87
2018-05-03T02:26:16.583Z,22.63
2018-05-03T02:28:44.890Z,23.23
2018-05-03T02:31:13.224Z,21.63
2018-05-03T02:33:41.599Z,23.53
2018-05-03T02:36:09.967Z,26.00
2018-05-03T02:38:38.325Z,25.27
2018-05-03T02:41:06.739Z,25.67
2018-05-03T02:43:35.066Z,29.70
2018-05-03T02:46:03.416Z,31.73
2018-05-03T02:48:31.743Z,28.53
2018-05-03T02:51:00.108Z,28.60
2018-05-03T02:53:28.498Z,29.37
2018-05-03T02:55:56.816Z,29.83
2018-05-03T02:58:37.054Z,29.23
2018-05-03T03:01:23.007Z,30.00
2018-05-03T03:04:08.820Z,25.87
2018-05-03T03:06:54.733Z,28.83
2018-05-03T03:13:09.910Z,25.97
2018-05-03T03:19:06.850Z,28.07
2018-05-03T03:21:53.308Z,30.63
2018-05-03T03:27:39.855Z,32.10
2018-05-03T03:30:19.995Z,31.27
2018-05-03T03:33:00.384Z,29.77
2018-05-03T03:38:48.372Z,30.33
2018-05-03T03:41:28.737Z,29.00
2018-05-03T03:44:08.836Z,30.97
2018-05-03T03:46:37.279Z,29.47
2018-05-03T03:49:05.684Z,29.60
2018-05-03T03:51:34.012Z,32.13
2018-05-03T03:54:02.438Z,29.80
2018-05-03T03:56:30.739Z,30.17
2018-05-03T03:58:59.083Z,29.73
2018-05-03T04:01:27.404Z,28.13
2018-05-03T04:03:55.749Z,26.50
2018-05-03T04:06:24.080Z,26.17
2018-05-03T04:08:52.988Z,26.27
2018-05-03T04:11:21.320Z,25.00
2018-05-03T04:13:49.686Z,27.13
2018-05-03T04:16:18.110Z,24.63
2018-05-03T04:18:58.095Z,23.40
2018-05-03T04:21:38.340Z,25.00
2018-05-03T04:24:18.732Z,25.07
2018-05-03T04:26:47.046Z,25.93
2018-05-03T04:29:15.403Z,24.90
2018-05-03T04:31:43.730Z,24.70
2018-05-03T04:34:12.140Z,24.57
2018-05-03T04:36:40.537Z,25.20
2018-05-03T04:39:08.871Z,22.80
2018-05-03T04:41:37.224Z,21.80
2018-05-03T04:44:05.547Z,21.50
2018-05-03T04:46:33.893Z,23.67
2018-05-03T04:49:02.215Z,22.77
2018-05-03T04:51:30.632Z,23.57
2018-05-03T04:53:59.023Z,21.57
2018-05-03T04:56:27.349Z,20.27
2018-05-03T04:58:55.715Z,20.03
2018-05-03T05:01:24.059Z,23.20
2018-05-03T05:03:52.388Z,20.67
2018-05-03T05:06:20.724Z,22.30
2018-05-03T05:08:49.065Z,23.57
2018-05-03T05:11:17.458Z,21.33
2018-05-03T05:13:45.864Z,22.53
2018-05-03T05:16:14.306Z,24.47
2018-05-03T05:18:42.611Z,22.67
2018-05-03T05:21:10.999Z,22.53
2018-05-03T05:23:39.347Z,21.37
2018-05-03T05:26:07.665Z,20.17
2018-05-03T05:28:35.992Z,20.20
2018-05-03T05:31:04.402Z,18.70
2018-05-03T05:33:32.791Z,19.87
2018-05-03T05:36:01.123Z,18.63
2018-05-03T05:38:29.528Z,20.43
2018-05-03T05:40:57.838Z,20.40
2018-05-03T05:43:26.282Z,20.30
2018-05-03T05:45:54.657Z,21.73
2018-05-03T05:48:23.002Z,22.83
2018-05-03T05:50:51.337Z,21.13
2018-05-03T05:53:19.727Z,21.07
2018-05-03T05:55:48.043Z,20.60
2018-05-03T05:58:16.412Z,21.53
2018-05-03T06:00:44.732Z,21.63
2018-05-03T06:03:13.065Z,19.93
2018-05-03T06:05:41.479Z,22.40
2018-05-03T06:08:09.854Z,19.90
2018-05-03T06:10:38.328Z,20.03
2018-05-03T06:13:06.665Z,20.43
2018-05-03T06:15:35.327Z,19.90
2018-05-03T06:18:03.665Z,19.80
2018-05-03T06:20:32.046Z,20.67
2018-05-03T06:23:00.443Z,19.77
2018-05-03T06:25:28.993Z,21.17
2018-05-03T06:27:57.485Z,21.80
2018-05-03T06:30:25.858Z,21.63
2018-05-03T06:32:54.165Z,22.13
2018-05-03T06:35:22.503Z,21.47
2018-05-03T06:37:51.002Z,22.87
2018-05-03T06:40:19.351Z,21.13
2018-05-03T06:42:47.680Z,25.27
2018-05-03T06:45:16.119Z,23.70
2018-05-03T06:47:44.415Z,23.97
2018-05-03T06:50:12.775Z,22.00
2018-05-03T06:52:41.061Z,23.07
2018-05-03T06:55:09.450Z,21.60
2018-05-03T06:57:37.781Z,21.83
2018-05-03T07:00:06.134Z,21.10
2018-05-03T07:02:34.472Z,20.77
2018-05-03T07:05:02.776Z,19.40
2018-05-03T07:07:31.102Z,21.27
2018-05-03T07:09:59.462Z,20.97
2018-05-03T07:12:27.744Z,21.17
2018-05-03T07:14:56.091Z,21.40
2018-05-03T07:17:24.461Z,20.20
2018-05-03T07:19:52.798Z,19.17
2018-05-03T07:22:21.134Z,19.47
2018-05-03T07:24:49.537Z,17.93
2018-05-03T07:27:17.928Z,21.00
2018-05-03T07:29:46.426Z,19.80
2018-05-03T07:32:14.747Z,18.90
2018-05-03T07:34:43.203Z,19.97
2018-05-03T07:37:11.417Z,20.77
2018-05-03T07:39:39.793Z,21.43
2018-05-03T07:42:08.194Z,20.37
2018-05-03T07:44:36.572Z,20.47
2018-05-03T07:47:04.929Z,20.73
2018-05-03T07:49:33.419Z,19.17
2018-05-03T07:52:01.744Z,17.40
2018-05-03T07:54:30.070Z,19.73
2018-05-03T07:56:58.434Z,18.73
2018-05-03T07:59:26.754Z,19.33
2018-05-03T08:01:55.088Z,18.50
2018-05-03T08:04:23.419Z,18.57
2018-05-03T08:06:51.746Z,18.37
2018-05-03T08:09:20.063Z,19.23
2018-05-03T08:11:48.380Z,19.93
2018-05-03T08:14:16.705Z,18.53
2018-05-03T08:16:45.090Z,16.20
2018-05-03T08:19:13.482Z,18.57
2018-05-03T08:21:41.816Z,17.53
2018-05-03T08:24:10.142Z,16.93
2018-05-03T08:26:38.545Z,15.63
2018-05-03T08:29:06.888Z,15.17
2018-05-03T08:31:35.310Z,17.83
2018-05-03T08:34:03.635Z,16.37
2018-05-03T08:36:31.947Z,18.70
2018-05-03T08:39:00.284Z,15.90
2018-05-03T08:41:28.607Z,15.33
2018-05-03T08:43:56.972Z,16.20
2018-05-03T08:46:25.364Z,15.03
2018-05-03T08:48:53.735Z,17.13
2018-05-03T08:51:22.079Z,15.70
2018-05-03T08:53:50.445Z,15.50
2018-05-03T08:56:18.757Z,15.20
2018-05-03T08:58:47.120Z,15.00
2018-05-03T09:01:15.469Z,24.57
2018-05-03T09:03:43.804Z,16.67
2018-05-03T09:06:12.227Z,17.23
2018-05-03T09:08:40.541Z,14.63
2018-05-03T09:11:08.977Z,13.83
2018-05-03T09:13:37.400Z,13.43
2018-05-03T09:16:05.972Z,13.83
2018-05-03T09:18:34.316Z,13.97
2018-05-03T09:21:02.716Z,13.83
2018-05-03T09:23:31.022Z,12.63
2018-05-03T09:25:59.415Z,12.70
2018-05-03T09:28:27.732Z,11.43
2018-05-03T09:30:56.079Z,10.80
2018-05-03T09:33:24.502Z,12.47
2018-05-03T09:35:52.840Z,10.90
2018-05-03T09:38:21.162Z,11.37
2018-05-03T09:40:49.498Z,12.67
2018-05-03T09:43:17.844Z,12.63
2018-05-03T09:45:46.273Z,11.93
2018-05-03T09:48:14.609Z,12.70
2018-05-03T09:50:43.167Z,12.20
2018-05-03T09:53:11.481Z,13.30
2018-05-03T09:55:39.841Z,12.57
2018-05-03T09:58:08.171Z,12.50
2018-05-03T10:00:36.487Z,12.97
2018-05-03T10:03:04.813Z,13.97
2018-05-03T10:05:33.219Z,13.90
2018-05-03T10:08:01.538Z,13.90
2018-05-03T10:10:29.898Z,14.60
2018-05-03T10:12:58.298Z,13.60
2018-05-03T10:15:26.698Z,13.30
2018-05-03T10:17:55.039Z,15.10
2018-05-03T10:20:23.995Z,14.07
2018-05-03T10:22:52.368Z,13.30
2018-05-03T10:25:20.775Z,14.17
2018-05-03T10:27:49.098Z,14.20
2018-05-03T10:30:17.437Z,15.77
2018-05-03T10:32:45.859Z,13.37
2018-05-03T10:35:14.202Z,14.57
2018-05-03T10:37:42.528Z,13.80
2018-05-03T10:40:10.922Z,13.73
2018-05-03T10:42:39.354Z,14.07
2018-05-03T10:45:07.666Z,13.57
2018-05-03T10:47:35.995Z,13.73
2018-05-03T10:50:04.382Z,14.43
2018-05-03T10:52:32.704Z,13.13
2018-05-03T10:55:01.188Z,14.63
2018-05-03T10:57:29.600Z,14.07
2018-05-03T10:59:58.009Z,15.40
2018-05-03T11:02:26.342Z,13.33
2018-05-03T11:04:54.677Z,13.57
2018-05-03T11:07:23.021Z,13.33
2018-05-03T11:09:51.377Z,14.47
2018-05-03T11:12:20.295Z,12.03
2018-05-03T11:14:48.730Z,12.90
2018-05-03T11:17:17.131Z,13.13
2018-05-03T11:19:45.466Z,14.03
2018-05-03T11:22:13.796Z,11.50
2018-05-03T11:24:42.174Z,11.83
2018-05-03T11:27:10.505Z,12.00
2018-05-03T11:29:38.923Z,11.10
2018-05-03T11:32:07.298Z,10.90
2018-05-03T11:34:35.637Z,11.87
2018-05-03T11:37:04.066Z,11.33
2018-05-03T11:39:32.319Z,11.80
2018-05-03T11:42:00.700Z,10.47
2018-05-03T11:44:29.098Z,10.63
2018-05-03T11:46:57.499Z,11.60
2018-05-03T11:49:25.947Z,11.37
2018-05-03T11:51:54.313Z,12.70
2018-05-03T11:54:22.698Z,15.27
2018-05-03T11:56:51.075Z,12.23
2018-05-03T11:59:19.483Z,12.03
2018-05-03T12:01:47.858Z,11.00
2018-05-03T12:04:16.251Z,10.60
2018-05-03T12:06:44.587Z,11.73
2018-05-03T12:09:12.919Z,11.70
2018-05-03T12:11:41.945Z,10.47
2018-05-03T12:14:10.277Z,10.47
2018-05-03T12:16:38.619Z,9.77
2018-05-03T12:19:06.947Z,10.47
2018-05-03T12:21:35.283Z,10.00
2018-05-03T12:24:03.663Z,10.87
2018-05-03T12:26:32.080Z,10.33
2018-05-03T12:29:00.428Z,10.83
2018-05-03T12:31:28.754Z,8.77
2018-05-03T12:33:57.112Z,10.70
2018-05-03T12:36:25.456Z,10.67
2018-05-03T12:38:53.789Z,9.37
2018-05-03T12:41:22.103Z,9.63
2018-05-03T12:43:50.449Z,10.60
2018-05-03T12:46:18.817Z,11.30
2018-05-03T12:48:47.155Z,11.83
2018-05-03T12:51:15.479Z,10.27
2018-05-03T12:53:43.894Z,10.60
2018-05-03T12:56:12.282Z,9.67
2018-05-03T12:58:40.635Z,10.50
2018-05-03T13:01:08.956Z,10.07
2018-05-03T13:03:37.317Z,9.93
2018-05-03T13:06:05.646Z,10.67
2018-05-03T13:08:34.029Z,10.67
2018-05-03T13:11:02.361Z,9.87
2018-05-03T13:13:30.692Z,10.60
2018-05-03T13:15:59.063Z,11.57
2018-05-03T13:18:27.375Z,10.20
2018-05-03T13:20:55.716Z,11.00
2018-05-03T13:23:24.070Z,11.67
2018-05-03T13:25:52.441Z,12.13
2018-05-03T13:28:20.773Z,12.17
2018-05-03T13:30:49.148Z,11.47
2018-05-03T13:33:17.478Z,11.43
2018-05-03T13:35:45.856Z,12.07
2018-05-03T13:38:14.248Z,12.77
2018-05-03T13:40:42.585Z,11.07
2018-05-03T13:43:11.026Z,12.03
2018-05-03T13:45:39.381Z,10.17
2018-05-03T13:48:07.746Z,10.47
2018-05-03T13:50:36.105Z,10.97
2018-05-03T13:53:04.468Z,11.80
2018-05-03T13:55:32.850Z,10.13
2018-05-03T13:58:01.188Z,11.70
2018-05-03T14:00:29.515Z,11.63
2018-05-03T14:02:57.829Z,11.33
2018-05-03T14:05:26.245Z,11.23
2018-05-03T14:07:54.642Z,11.63
2018-05-03T14:10:22.994Z,12.17
2018-05-03T14:12:51.344Z,12.27
2018-05-03T14:15:19.711Z,9.87
2018-05-03T14:17:48.080Z,11.27
2018-05-03T14:20:16.409Z,10.70
2018-05-03T14:22:44.760Z,11.50
2018-05-03T14:25:13.087Z,11.27
2018-05-03T14:27:41.451Z,11.10
2018-05-03T14:30:09.862Z,10.17
2018-05-03T14:32:38.240Z,11.37
2018-05-03T14:35:06.583Z,10.57
2018-05-03T14:37:34.962Z,10.30
2018-05-03T14:40:03.315Z,10.87
2018-05-03T14:42:31.644Z,9.70
2018-05-03T14:45:00.052Z,10.37
2018-05-03T14:47:28.406Z,10.87
2018-05-03T14:49:56.729Z,11.93
2018-05-03T14:52:25.095Z,10.03
2018-05-03T14:54:53.439Z,12.93
2018-05-03T14:57:21.788Z,10.90
2018-05-03T14:59:50.141Z,10.83
2018-05-03T15:02:18.490Z,12.13
2018-05-03T15:04:46.943Z,10.20
2018-05-03T15:07:15.266Z,10.87
2018-05-03T15:09:43.618Z,10.60
2018-05-03T15:12:11.947Z,10.40
2018-05-03T15:14:40.299Z,10.03
2018-05-03T15:17:08.636Z,10.27
2018-05-03T15:19:36.958Z,9.77
2018-05-03T15:22:05.280Z,9.57
2018-05-03T15:24:33.687Z,8.83
2018-05-03T15:27:01.999Z,7.90
2018-05-03T15:29:30.330Z,7.50
2018-05-03T15:31:58.662Z,10.40
2018-05-03T15:34:27.522Z,7.47
2018-05-03T15:36:56.032Z,7.70
2018-05-03T15:39:24.452Z,7.93
2018-05-03T15:41:52.873Z,9.20
2018-05-03T15:44:21.214Z,8.17
2018-05-03T15:46:49.528Z,7.40
2018-05-03T15:49:17.854Z,7.83
2018-05-03T15:51:46.219Z,6.73
2018-05-03T15:54:14.544Z,7.33
2018-05-03T15:56:42.858Z,7.23
2018-05-03T15:59:11.195Z,6.43
2018-05-03T16:01:39.535Z,6.63
2018-05-03T16:04:08.866Z,6.40
2018-05-03T16:06:37.184Z,7.00
2018-05-03T16:09:06.447Z,6.00
2018-05-03T16:11:34.775Z,5.97
2018-05-03T16:14:03.115Z,6.27
2018-05-03T16:16:31.479Z,6.80
2018-05-03T16:19:00.069Z,6.43
2018-05-03T16:21:28.403Z,6.00
2018-05-03T16:23:56.729Z,6.30
2018-05-03T16:26:25.068Z,6.33
2018-05-03T16:28:54.361Z,5.53
2018-05-03T16:31:22.707Z,5.73
2018-05-03T16:33:51.027Z,5.67
2018-05-03T16:36:19.386Z,6.30
2018-05-03T16:38:47.715Z,7.00
2018-05-03T16:41:16.068Z,6.00
2018-05-03T16:43:44.386Z,6.00
2018-05-03T16:46:12.710Z,6.43
2018-05-03T16:48:41.042Z,7.40
2018-05-03T16:51:09.391Z,6.93
2018-05-03T16:53:37.955Z,6.23
2018-05-03T16:56:06.298Z,6.50
2018-05-03T16:58:34.607Z,6.33
2018-05-03T17:01:03.063Z,7.07
2018-05-03T17:03:31.390Z,7.07
2018-05-03T17:06:00.725Z,7.47
2018-05-03T17:08:29.062Z,6.63
2018-05-03T17:10:57.381Z,6.30
2018-05-03T17:13:25.728Z,5.83
2018-05-03T17:15:54.046Z,6.13
2018-05-03T17:18:22.401Z,7.27
2018-05-03T17:20:50.743Z,7.67
2018-05-03T17:23:23.571Z,6.60
2018-05-03T17:25:51.927Z,7.87
2018-05-03T17:28:20.370Z,8.23
2018-05-03T17:30:48.787Z,6.37
2018-05-03T17:33:17.166Z,6.70
2018-05-03T17:35:46.284Z,7.50
2018-05-03T17:38:14.622Z,7.80
2018-05-03T17:40:42.966Z,8.70
2018-05-03T17:43:11.299Z,7.40
2018-05-03T17:45:39.633Z,8.03
2018-05-03T17:48:08.025Z,7.47
2018-05-03T17:50:36.419Z,8.07
2018-05-03T17:53:04.884Z,7.20
2018-05-03T17:55:33.229Z,8.17
2018-05-03T17:58:01.547Z,8.47
2018-05-03T18:00:29.863Z,8.13
2018-05-03T18:02:58.177Z,8.30
2018-05-03T18:05:26.525Z,7.67
2018-05-03T18:07:55.013Z,8.93
2018-05-03T18:10:23.391Z,9.17
2018-05-03T18:12:51.799Z,11.20
2018-05-03T18:15:20.156Z,9.07
2018-05-03T18:17:48.491Z,10.70
2018-05-03T18:20:16.932Z,9.33
2018-05-03T18:22:45.265Z,9.47
2018-05-03T18:25:13.635Z,10.53
2018-05-03T18:27:41.955Z,9.57
2018-05-03T18:30:10.392Z,10.70
2018-05-03T18:32:38.822Z,11.03
2018-05-03T18:35:07.124Z,10.73
2018-05-03T18:37:35.566Z,9.93
2018-05-03T18:40:03.959Z,10.03
2018-05-03T18:42:32.306Z,9.70
2018-05-03T18:45:00.635Z,9.40
2018-05-03T18:47:28.988Z,9.43
2018-05-03T18:49:57.378Z,8.43
2018-05-03T18:52:25.735Z,9.10
2018-05-03T18:54:54.063Z,8.60
2018-05-03T18:57:22.417Z,10.03
2018-05-03T18:59:50.762Z,9.13
2018-05-03T19:02:19.188Z,10.43
2018-05-03T19:04:47.647Z,9.90
2018-05-03T19:07:15.966Z,10.30
2018-05-03T19:09:44.342Z,10.07
2018-05-03T19:12:12.681Z,10.00
2018-05-03T19:14:41.014Z,9.17
2018-05-03T19:17:09.386Z,9.23
2018-05-03T19:19:37.729Z,8.23
2018-05-03T19:22:06.105Z,8.83
2018-05-03T19:24:34.464Z,8.37
2018-05-03T19:27:02.815Z,8.50
2018-05-03T19:29:31.128Z,7.83
2018-05-03T19:31:59.453Z,7.03
2018-05-03T19:34:27.765Z,8.47
2018-05-03T19:36:56.139Z,8.70
2018-05-03T19:39:24.559Z,7.60
2018-05-03T19:41:52.954Z,7.77
2018-05-03T19:44:21.290Z,7.90
2018-05-03T19:46:49.615Z,5.77
2018-05-03T19:49:17.957Z,7.33
2018-05-03T19:51:46.331Z,6.63
2018-05-03T19:54:14.699Z,6.23
2018-05-03T19:56:43.004Z,6.73
2018-05-03T19:59:11.393Z,5.87
2018-05-03T20:01:39.806Z,5.43
2018-05-03T20:04:08.219Z,5.43
2018-05-03T20:06:36.577Z,6.03
2018-05-03T20:09:04.912Z,4.90
2018-05-03T20:11:33.249Z,4.90
2018-05-03T20:14:01.596Z,5.30
2018-05-03T20:16:29.937Z,5.77
2018-05-03T20:18:58.328Z,5.47
2018-05-03T20:21:26.717Z,5.10
2018-05-03T20:23:55.035Z,4.57
2018-05-03T20:26:23.378Z,5.03
2018-05-03T20:28:51.819Z,5.83
2018-05-03T20:31:20.140Z,5.17
2018-05-03T20:33:49.492Z,5.80
2018-05-03T20:36:17.991Z,4.93
2018-05-03T20:38:46.325Z,6.13
2018-05-03T20:41:14.626Z,6.43
2018-05-03T20:43:43.265Z,6.60
2018-05-03T20:46:11.773Z,6.80
2018-05-03T20:48:40.063Z,8.70
2018-05-03T20:51:08.475Z,7.80
2018-05-03T20:53:36.797Z,7.57
2018-05-03T20:56:05.111Z,7.53
2018-05-03T20:58:33.532Z,6.83
2018-05-03T21:01:01.838Z,8.40
2018-05-03T21:03:30.179Z,7.60
2018-05-03T21:05:58.497Z,7.37
2018-05-03T21:08:26.885Z,6.57
2018-05-03T21:10:55.213Z,5.97
2018-05-03T21:13:23.538Z,6.40
2018-05-03T21:15:51.874Z,5.10
2018-05-03T21:18:20.212Z,4.70
2018-05-03T21:20:48.738Z,4.80
2018-05-03T21:23:17.098Z,4.80
2018-05-03T21:25:45.413Z,3.93
2018-05-03T21:28:13.818Z,4.50
2018-05-03T21:30:42.168Z,3.80
2018-05-03T21:33:10.504Z,3.97
2018-05-03T21:35:38.887Z,3.70
2018-05-03T21:38:07.220Z,3.60
2018-05-03T21:40:35.551Z,3.60
2018-05-03T21:43:03.980Z,3.83
2018-05-03T21:45:32.299Z,3.87
2018-05-03T21:48:00.612Z,2.97
2018-05-03T21:50:28.963Z,3.67
2018-05-03T21:52:57.353Z,3.23
2018-05-03T21:55:25.659Z,2.83
2018-05-03T21:57:53.995Z,2.83
2018-05-03T22:00:22.344Z,3.03
2018-05-03T22:02:50.708Z,3.70
2018-05-03T22:05:19.026Z,2.43
2018-05-03T22:07:47.384Z,2.83
2018-05-03T22:10:15.726Z,2.93
2018-05-03T22:12:44.052Z,2.47
2018-05-03T22:15:12.443Z,2.50
2018-05-03T22:17:40.776Z,3.17
2018-05-03T22:20:09.095Z,6.60
2018-05-03T22:22:37.498Z,3.17
2018-05-03T22:25:05.816Z,2.43
2018-05-03T22:27:34.158Z,2.53
2018-05-03T22:33:01.666Z,1.93
2018-05-03T22:35:30.132Z,2.17
2018-05-03T22:37:58.593Z,2.33
2018-05-03T22:40:26.966Z,2.53
2018-05-03T22:42:55.291Z,2.23
2018-05-03T22:45:23.630Z,2.70
2018-05-03T22:47:51.962Z,1.83
2018-05-03T22:50:20.281Z,3.67
2018-05-03T22:52:48.670Z,2.00
2018-05-03T22:55:16.986Z,2.30
2018-05-03T22:57:45.316Z,2.07
2018-05-03T23:00:13.637Z,2.07
2018-05-03T23:02:41.948Z,2.00
2018-05-03T23:05:10.269Z,1.67
2018-05-03T23:07:38.606Z,2.00
2018-05-03T23:10:06.943Z,2.33
2018-05-03T23:12:35.278Z,2.20
2018-05-03T23:15:03.607Z,2.07
2018-05-03T23:17:31.935Z,2.53
2018-05-03T23:20:00.343Z,2.53
2018-05-03T23:22:32.595Z,2.90
2018-05-03T23:25:00.925Z,1.90
2018-05-03T23:27:29.247Z,2.30
2018-05-03T23:29:57.603Z,2.07
2018-05-03T23:32:26.000Z,2.50
2018-05-03T23:34:54.410Z,2.23
2018-05-03T23:37:22.727Z,1.97
2018-05-03T23:39:51.078Z,1.83
2018-05-03T23:42:19.397Z,1.90
2018-05-03T23:44:47.754Z,2.07
2018-05-03T23:47:16.165Z,2.27
2018-05-03T23:49:44.551Z,2.17
2018-05-03T23:52:12.895Z,2.57
2018-05-03T23:54:41.236Z,2.10
2018-05-03T23:57:09.555Z,2.50
2018-05-03T23:59:37.922Z,2.10
